sensor_id;sensor_type;location;lat;lon;timestamp;P1;durP1;ratioP1;P2;durP2;ratioP2
24873;SDS011;12945;42.648;23.370;2022-12-07T00:02:00;64.90;;;27.95;;
24873;SDS011;12945;42.648;23.370;2022-12-07T00:04:25;67.93;;;30.17;;
24873;SDS011;12945;42.648;23.370;2022-12-07T00:06:51;59.78;;;28.40;;
24873;SDS011;12945;42.648;23.370;2022-12-07T00:09:17;54.60;;;27.45;;
24873;SDS011;12945;42.648;23.370;2022-12-07T00:11:43;54.63;;;26.75;;
24873;SDS011;12945;42.648;23.370;2022-12-07T00:14:13;44.50;;;22.25;;
24873;SDS011;12945;42.648;23.370;2022-12-07T00:16:39;54.80;;;23.75;;
24873;SDS011;12945;42.648;23.370;2022-12-07T00:19:04;52.10;;;22.67;;
24873;SDS011;12945;42.648;23.370;2022-12-07T00:21:34;51.22;;;24.13;;
24873;SDS011;12945;42.648;23.370;2022-12-07T00:23:59;47.88;;;23.70;;
24873;SDS011;12945;42.648;23.370;2022-12-07T00:26:29;48.45;;;25.23;;
24873;SDS011;12945;42.648;23.370;2022-12-07T00:28:56;56.50;;;26.05;;
24873;SDS011;12945;42.648;23.370;2022-12-07T00:31:22;54.97;;;28.73;;
24873;SDS011;12945;42.648;23.370;2022-12-07T00:33:48;62.63;;;31.23;;
24873;SDS011;12945;42.648;23.370;2022-12-07T00:36:14;59.88;;;29.90;;
24873;SDS011;12945;42.648;23.370;2022-12-07T00:38:40;60.10;;;29.95;;
24873;SDS011;12945;42.648;23.370;2022-12-07T00:41:13;59.42;;;30.33;;
24873;SDS011;12945;42.648;23.370;2022-12-07T00:43:39;61.95;;;31.63;;
24873;SDS011;12945;42.648;23.370;2022-12-07T00:46:05;64.32;;;32.85;;
24873;SDS011;12945;42.648;23.370;2022-12-07T00:48:30;62.65;;;32.30;;
24873;SDS011;12945;42.648;23.370;2022-12-07T00:50:56;65.57;;;31.25;;
24873;SDS011;12945;42.648;23.370;2022-12-07T00:53:21;61.97;;;31.20;;
24873;SDS011;12945;42.648;23.370;2022-12-07T00:55:46;66.00;;;30.40;;
24873;SDS011;12945;42.648;23.370;2022-12-07T00:58:12;59.85;;;29.83;;
24873;SDS011;12945;42.648;23.370;2022-12-07T01:00:38;60.67;;;30.67;;
24873;SDS011;12945;42.648;23.370;2022-12-07T01:03:04;58.20;;;30.10;;
24873;SDS011;12945;42.648;23.370;2022-12-07T01:05:30;58.45;;;30.20;;
24873;SDS011;12945;42.648;23.370;2022-12-07T01:07:56;58.15;;;30.70;;
24873;SDS011;12945;42.648;23.370;2022-12-07T01:10:21;59.38;;;29.88;;
24873;SDS011;12945;42.648;23.370;2022-12-07T01:12:46;62.30;;;30.30;;
24873;SDS011;12945;42.648;23.370;2022-12-07T01:15:12;62.97;;;31.90;;
24873;SDS011;12945;42.648;23.370;2022-12-07T01:17:37;78.90;;;36.72;;
24873;SDS011;12945;42.648;23.370;2022-12-07T01:20:02;76.57;;;38.03;;
24873;SDS011;12945;42.648;23.370;2022-12-07T01:22:28;80.32;;;38.72;;
24873;SDS011;12945;42.648;23.370;2022-12-07T01:24:53;80.03;;;39.33;;
24873;SDS011;12945;42.648;23.370;2022-12-07T01:27:18;82.72;;;40.33;;
24873;SDS011;12945;42.648;23.370;2022-12-07T01:29:44;80.07;;;38.15;;
24873;SDS011;12945;42.648;23.370;2022-12-07T01:32:09;77.97;;;37.35;;
24873;SDS011;12945;42.648;23.370;2022-12-07T01:34:34;80.38;;;38.80;;
24873;SDS011;12945;42.648;23.370;2022-12-07T01:36:59;81.38;;;39.55;;
24873;SDS011;12945;42.648;23.370;2022-12-07T01:39:25;78.45;;;38.10;;
24873;SDS011;12945;42.648;23.370;2022-12-07T01:41:50;79.88;;;39.85;;
24873;SDS011;12945;42.648;23.370;2022-12-07T01:44:25;72.25;;;36.47;;
24873;SDS011;12945;42.648;23.370;2022-12-07T01:46:55;75.32;;;37.60;;
24873;SDS011;12945;42.648;23.370;2022-12-07T01:51:46;76.85;;;36.75;;
24873;SDS011;12945;42.648;23.370;2022-12-07T01:54:12;72.63;;;35.60;;
24873;SDS011;12945;42.648;23.370;2022-12-07T01:56:38;73.55;;;37.03;;
24873;SDS011;12945;42.648;23.370;2022-12-07T01:59:04;76.65;;;37.25;;
24873;SDS011;12945;42.648;23.370;2022-12-07T02:01:30;71.03;;;35.13;;
24873;SDS011;12945;42.648;23.370;2022-12-07T02:03:55;90.13;;;38.33;;
24873;SDS011;12945;42.648;23.370;2022-12-07T02:06:22;78.80;;;38.85;;
24873;SDS011;12945;42.648;23.370;2022-12-07T02:08:48;92.85;;;40.45;;
24873;SDS011;12945;42.648;23.370;2022-12-07T02:11:13;81.28;;;40.97;;
24873;SDS011;12945;42.648;23.370;2022-12-07T02:13:39;83.95;;;39.20;;
24873;SDS011;12945;42.648;23.370;2022-12-07T02:16:12;77.47;;;39.72;;
24873;SDS011;12945;42.648;23.370;2022-12-07T02:32:48;78.78;;;38.65;;
24873;SDS011;12945;42.648;23.370;2022-12-07T02:40:02;81.30;;;38.13;;
24873;SDS011;12945;42.648;23.370;2022-12-07T02:42:34;73.78;;;37.00;;
24873;SDS011;12945;42.648;23.370;2022-12-07T02:45:00;72.22;;;34.65;;
24873;SDS011;12945;42.648;23.370;2022-12-07T02:47:26;79.72;;;37.15;;
24873;SDS011;12945;42.648;23.370;2022-12-07T02:49:52;79.60;;;37.88;;
24873;SDS011;12945;42.648;23.370;2022-12-07T02:52:18;69.80;;;37.33;;
24873;SDS011;12945;42.648;23.370;2022-12-07T02:54:43;83.35;;;37.97;;
24873;SDS011;12945;42.648;23.370;2022-12-07T02:59:58;75.65;;;36.35;;
24873;SDS011;12945;42.648;23.370;2022-12-07T03:02:31;75.97;;;36.20;;
24873;SDS011;12945;42.648;23.370;2022-12-07T03:15:05;77.97;;;36.90;;
24873;SDS011;12945;42.648;23.370;2022-12-07T03:17:33;75.47;;;36.30;;
24873;SDS011;12945;42.648;23.370;2022-12-07T03:20:00;74.22;;;34.45;;
24873;SDS011;12945;42.648;23.370;2022-12-07T03:22:27;73.82;;;34.88;;
24873;SDS011;12945;42.648;23.370;2022-12-07T03:24:54;71.63;;;35.35;;
24873;SDS011;12945;42.648;23.370;2022-12-07T03:29:53;70.05;;;35.22;;
24873;SDS011;12945;42.648;23.370;2022-12-07T03:32:21;74.72;;;34.88;;
24873;SDS011;12945;42.648;23.370;2022-12-07T03:37:21;75.32;;;36.58;;
24873;SDS011;12945;42.648;23.370;2022-12-07T03:42:30;80.57;;;37.83;;
24873;SDS011;12945;42.648;23.370;2022-12-07T03:44:56;77.15;;;37.42;;
24873;SDS011;12945;42.648;23.370;2022-12-07T03:47:32;74.75;;;35.83;;
24873;SDS011;12945;42.648;23.370;2022-12-07T03:49:59;81.35;;;37.00;;
24873;SDS011;12945;42.648;23.370;2022-12-07T03:52:44;81.50;;;37.75;;
24873;SDS011;12945;42.648;23.370;2022-12-07T03:57:36;72.70;;;36.15;;
24873;SDS011;12945;42.648;23.370;2022-12-07T04:00:03;73.93;;;36.13;;
24873;SDS011;12945;42.648;23.370;2022-12-07T04:02:29;75.50;;;39.03;;
24873;SDS011;12945;42.648;23.370;2022-12-07T04:04:55;69.93;;;37.05;;
24873;SDS011;12945;42.648;23.370;2022-12-07T04:07:20;74.35;;;37.90;;
24873;SDS011;12945;42.648;23.370;2022-12-07T04:09:46;69.68;;;36.08;;
24873;SDS011;12945;42.648;23.370;2022-12-07T04:12:11;70.53;;;36.78;;
24873;SDS011;12945;42.648;23.370;2022-12-07T04:14:36;80.07;;;36.45;;
24873;SDS011;12945;42.648;23.370;2022-12-07T04:17:02;77.68;;;38.40;;
24873;SDS011;12945;42.648;23.370;2022-12-07T04:19:28;76.05;;;36.60;;
24873;SDS011;12945;42.648;23.370;2022-12-07T04:21:54;79.97;;;38.20;;
24873;SDS011;12945;42.648;23.370;2022-12-07T04:24:19;78.60;;;36.83;;
24873;SDS011;12945;42.648;23.370;2022-12-07T04:26:45;72.50;;;36.80;;
24873;SDS011;12945;42.648;23.370;2022-12-07T04:29:11;80.10;;;38.45;;
24873;SDS011;12945;42.648;23.370;2022-12-07T04:31:36;72.00;;;37.97;;
24873;SDS011;12945;42.648;23.370;2022-12-07T04:34:02;78.28;;;37.70;;
24873;SDS011;12945;42.648;23.370;2022-12-07T04:36:27;78.13;;;37.88;;
24873;SDS011;12945;42.648;23.370;2022-12-07T04:38:53;74.90;;;36.20;;
24873;SDS011;12945;42.648;23.370;2022-12-07T04:41:19;71.32;;;36.38;;
24873;SDS011;12945;42.648;23.370;2022-12-07T04:43:51;79.93;;;35.67;;
24873;SDS011;12945;42.648;23.370;2022-12-07T04:46:17;64.65;;;32.83;;
24873;SDS011;12945;42.648;23.370;2022-12-07T04:48:42;64.55;;;33.33;;
24873;SDS011;12945;42.648;23.370;2022-12-07T04:51:07;71.72;;;35.08;;
24873;SDS011;12945;42.648;23.370;2022-12-07T04:53:32;73.95;;;34.97;;
24873;SDS011;12945;42.648;23.370;2022-12-07T04:55:58;73.47;;;36.45;;
24873;SDS011;12945;42.648;23.370;2022-12-07T04:58:23;74.55;;;36.08;;
24873;SDS011;12945;42.648;23.370;2022-12-07T05:00:48;72.00;;;34.65;;
24873;SDS011;12945;42.648;23.370;2022-12-07T05:03:13;72.53;;;34.17;;
24873;SDS011;12945;42.648;23.370;2022-12-07T05:05:42;67.03;;;35.28;;
24873;SDS011;12945;42.648;23.370;2022-12-07T05:08:07;76.45;;;35.08;;
24873;SDS011;12945;42.648;23.370;2022-12-07T05:10:32;74.15;;;34.88;;
24873;SDS011;12945;42.648;23.370;2022-12-07T05:12:57;65.32;;;33.08;;
24873;SDS011;12945;42.648;23.370;2022-12-07T05:15:23;66.07;;;33.15;;
24873;SDS011;12945;42.648;23.370;2022-12-07T05:17:48;70.57;;;34.30;;
24873;SDS011;12945;42.648;23.370;2022-12-07T05:20:13;71.68;;;33.45;;
24873;SDS011;12945;42.648;23.370;2022-12-07T05:22:38;66.47;;;34.28;;
24873;SDS011;12945;42.648;23.370;2022-12-07T05:25:04;73.00;;;34.20;;
24873;SDS011;12945;42.648;23.370;2022-12-07T05:27:29;69.18;;;34.78;;
24873;SDS011;12945;42.648;23.370;2022-12-07T05:29:54;74.60;;;34.40;;
24873;SDS011;12945;42.648;23.370;2022-12-07T05:32:20;68.57;;;35.13;;
24873;SDS011;12945;42.648;23.370;2022-12-07T05:34:45;82.72;;;34.17;;
24873;SDS011;12945;42.648;23.370;2022-12-07T05:37:10;67.90;;;34.67;;
24873;SDS011;12945;42.648;23.370;2022-12-07T05:39:35;77.30;;;34.55;;
24873;SDS011;12945;42.648;23.370;2022-12-07T05:42:02;83.97;;;37.17;;
24873;SDS011;12945;42.648;23.370;2022-12-07T05:44:37;81.07;;;37.38;;
24873;SDS011;12945;42.648;23.370;2022-12-07T05:47:02;75.30;;;37.10;;
24873;SDS011;12945;42.648;23.370;2022-12-07T05:49:27;76.38;;;35.92;;
24873;SDS011;12945;42.648;23.370;2022-12-07T05:51:53;72.90;;;35.95;;
24873;SDS011;12945;42.648;23.370;2022-12-07T05:54:18;74.90;;;37.92;;
24873;SDS011;12945;42.648;23.370;2022-12-07T05:56:43;77.00;;;36.25;;
24873;SDS011;12945;42.648;23.370;2022-12-07T05:59:09;76.45;;;35.10;;
24873;SDS011;12945;42.648;23.370;2022-12-07T06:01:50;76.95;;;37.00;;
24873;SDS011;12945;42.648;23.370;2022-12-07T06:04:16;74.97;;;36.55;;
24873;SDS011;12945;42.648;23.370;2022-12-07T06:06:41;74.65;;;37.35;;
24873;SDS011;12945;42.648;23.370;2022-12-07T06:09:06;72.35;;;35.72;;
24873;SDS011;12945;42.648;23.370;2022-12-07T06:11:32;78.50;;;35.58;;
24873;SDS011;12945;42.648;23.370;2022-12-07T06:14:15;70.57;;;35.38;;
24873;SDS011;12945;42.648;23.370;2022-12-07T06:16:41;73.03;;;34.53;;
24873;SDS011;12945;42.648;23.370;2022-12-07T06:19:06;71.50;;;33.92;;
24873;SDS011;12945;42.648;23.370;2022-12-07T06:21:31;68.05;;;34.17;;
24873;SDS011;12945;42.648;23.370;2022-12-07T06:23:56;69.70;;;33.20;;
24873;SDS011;12945;42.648;23.370;2022-12-07T06:26:22;71.78;;;34.47;;
24873;SDS011;12945;42.648;23.370;2022-12-07T06:28:47;72.22;;;33.55;;
24873;SDS011;12945;42.648;23.370;2022-12-07T06:31:12;70.60;;;35.40;;
24873;SDS011;12945;42.648;23.370;2022-12-07T06:33:38;75.35;;;33.67;;
24873;SDS011;12945;42.648;23.370;2022-12-07T06:36:03;76.15;;;34.17;;
24873;SDS011;12945;42.648;23.370;2022-12-07T06:38:28;77.10;;;34.55;;
24873;SDS011;12945;42.648;23.370;2022-12-07T06:40:53;76.88;;;37.00;;
24873;SDS011;12945;42.648;23.370;2022-12-07T06:43:19;80.20;;;36.78;;
24873;SDS011;12945;42.648;23.370;2022-12-07T06:45:44;70.15;;;34.78;;
24873;SDS011;12945;42.648;23.370;2022-12-07T06:48:09;69.88;;;34.53;;
24873;SDS011;12945;42.648;23.370;2022-12-07T06:50:35;81.43;;;34.80;;
24873;SDS011;12945;42.648;23.370;2022-12-07T06:53:00;79.45;;;39.70;;
24873;SDS011;12945;42.648;23.370;2022-12-07T06:55:25;99.88;;;45.70;;
24873;SDS011;12945;42.648;23.370;2022-12-07T06:57:50;72.85;;;39.78;;
24873;SDS011;12945;42.648;23.370;2022-12-07T07:00:16;83.85;;;39.30;;
24873;SDS011;12945;42.648;23.370;2022-12-07T07:02:41;70.70;;;37.72;;
24873;SDS011;12945;42.648;23.370;2022-12-07T07:05:06;71.78;;;36.50;;
24873;SDS011;12945;42.648;23.370;2022-12-07T07:07:32;63.88;;;33.65;;
24873;SDS011;12945;42.648;23.370;2022-12-07T07:09:57;72.95;;;34.08;;
24873;SDS011;12945;42.648;23.370;2022-12-07T07:12:22;69.10;;;31.95;;
24873;SDS011;12945;42.648;23.370;2022-12-07T07:14:48;67.60;;;33.72;;
24873;SDS011;12945;42.648;23.370;2022-12-07T07:17:13;61.22;;;31.55;;
24873;SDS011;12945;42.648;23.370;2022-12-07T07:19:38;72.47;;;34.67;;
24873;SDS011;12945;42.648;23.370;2022-12-07T07:22:04;77.15;;;36.28;;
24873;SDS011;12945;42.648;23.370;2022-12-07T07:24:29;76.32;;;34.85;;
24873;SDS011;12945;42.648;23.370;2022-12-07T07:26:54;70.30;;;35.90;;
24873;SDS011;12945;42.648;23.370;2022-12-07T07:29:20;76.43;;;36.13;;
24873;SDS011;12945;42.648;23.370;2022-12-07T07:31:45;78.70;;;35.85;;
24873;SDS011;12945;42.648;23.370;2022-12-07T07:34:10;73.72;;;34.90;;
24873;SDS011;12945;42.648;23.370;2022-12-07T07:36:35;79.32;;;36.10;;
24873;SDS011;12945;42.648;23.370;2022-12-07T07:39:01;84.45;;;35.97;;
24873;SDS011;12945;42.648;23.370;2022-12-07T07:41:26;74.47;;;36.22;;
24873;SDS011;12945;42.648;23.370;2022-12-07T07:43:51;88.45;;;35.47;;
24873;SDS011;12945;42.648;23.370;2022-12-07T07:46:17;88.80;;;36.85;;
24873;SDS011;12945;42.648;23.370;2022-12-07T07:48:42;71.47;;;35.55;;
24873;SDS011;12945;42.648;23.370;2022-12-07T07:51:07;74.30;;;33.90;;
24873;SDS011;12945;42.648;23.370;2022-12-07T07:53:33;74.55;;;33.75;;
24873;SDS011;12945;42.648;23.370;2022-12-07T07:55:58;58.13;;;25.85;;
24873;SDS011;12945;42.648;23.370;2022-12-07T07:58:23;52.78;;;26.45;;
24873;SDS011;12945;42.648;23.370;2022-12-07T08:00:49;70.47;;;32.53;;
24873;SDS011;12945;42.648;23.370;2022-12-07T08:03:14;69.78;;;33.50;;
24873;SDS011;12945;42.648;23.370;2022-12-07T08:05:39;67.78;;;32.75;;
24873;SDS011;12945;42.648;23.370;2022-12-07T08:08:05;64.10;;;33.15;;
24873;SDS011;12945;42.648;23.370;2022-12-07T08:10:30;65.85;;;32.88;;
24873;SDS011;12945;42.648;23.370;2022-12-07T08:12:57;64.30;;;30.63;;
24873;SDS011;12945;42.648;23.370;2022-12-07T08:15:42;66.93;;;33.28;;
24873;SDS011;12945;42.648;23.370;2022-12-07T08:18:07;63.75;;;31.63;;
24873;SDS011;12945;42.648;23.370;2022-12-07T08:20:33;58.10;;;30.45;;
24873;SDS011;12945;42.648;23.370;2022-12-07T08:22:59;64.55;;;29.27;;
24873;SDS011;12945;42.648;23.370;2022-12-07T08:25:25;54.20;;;28.23;;
24873;SDS011;12945;42.648;23.370;2022-12-07T08:27:51;49.10;;;25.90;;
24873;SDS011;12945;42.648;23.370;2022-12-07T08:30:16;59.85;;;27.80;;
24873;SDS011;12945;42.648;23.370;2022-12-07T08:32:42;61.40;;;28.23;;
24873;SDS011;12945;42.648;23.370;2022-12-07T08:35:09;69.18;;;31.08;;
24873;SDS011;12945;42.648;23.370;2022-12-07T08:37:34;64.10;;;31.15;;
24873;SDS011;12945;42.648;23.370;2022-12-07T08:39:59;66.93;;;30.08;;
24873;SDS011;12945;42.648;23.370;2022-12-07T08:42:25;75.20;;;31.98;;
24873;SDS011;12945;42.648;23.370;2022-12-07T08:44:54;61.63;;;29.67;;
24873;SDS011;12945;42.648;23.370;2022-12-07T08:47:19;61.85;;;30.42;;
24873;SDS011;12945;42.648;23.370;2022-12-07T08:49:46;62.42;;;31.38;;
24873;SDS011;12945;42.648;23.370;2022-12-07T08:52:12;60.33;;;31.08;;
24873;SDS011;12945;42.648;23.370;2022-12-07T08:54:38;68.55;;;30.80;;
24873;SDS011;12945;42.648;23.370;2022-12-07T08:57:04;67.78;;;32.03;;
24873;SDS011;12945;42.648;23.370;2022-12-07T08:59:30;80.65;;;35.92;;
24873;SDS011;12945;42.648;23.370;2022-12-07T09:01:55;63.22;;;31.98;;
24873;SDS011;12945;42.648;23.370;2022-12-07T09:04:20;61.30;;;31.70;;
24873;SDS011;12945;42.648;23.370;2022-12-07T09:06:46;78.15;;;39.28;;
24873;SDS011;12945;42.648;23.370;2022-12-07T09:09:11;68.38;;;34.10;;
24873;SDS011;12945;42.648;23.370;2022-12-07T09:11:37;63.75;;;29.48;;
24873;SDS011;12945;42.648;23.370;2022-12-07T09:14:04;66.13;;;32.50;;
24873;SDS011;12945;42.648;23.370;2022-12-07T09:16:29;71.70;;;33.28;;
24873;SDS011;12945;42.648;23.370;2022-12-07T09:18:54;57.35;;;29.60;;
24873;SDS011;12945;42.648;23.370;2022-12-07T09:21:19;59.35;;;31.13;;
24873;SDS011;12945;42.648;23.370;2022-12-07T09:23:45;56.47;;;31.40;;
24873;SDS011;12945;42.648;23.370;2022-12-07T09:26:10;64.00;;;32.55;;
24873;SDS011;12945;42.648;23.370;2022-12-07T09:28:35;61.25;;;29.63;;
24873;SDS011;12945;42.648;23.370;2022-12-07T09:31:02;56.83;;;29.77;;
24873;SDS011;12945;42.648;23.370;2022-12-07T09:33:27;60.00;;;30.30;;
24873;SDS011;12945;42.648;23.370;2022-12-07T09:35:52;63.05;;;29.75;;
24873;SDS011;12945;42.648;23.370;2022-12-07T09:38:18;68.93;;;31.33;;
24873;SDS011;12945;42.648;23.370;2022-12-07T09:40:43;69.32;;;30.35;;
24873;SDS011;12945;42.648;23.370;2022-12-07T09:43:17;70.40;;;32.00;;
24873;SDS011;12945;42.648;23.370;2022-12-07T09:45:43;72.70;;;31.52;;
24873;SDS011;12945;42.648;23.370;2022-12-07T09:48:51;55.25;;;29.63;;
24873;SDS011;12945;42.648;23.370;2022-12-07T09:50:58;65.22;;;31.13;;
24873;SDS011;12945;42.648;23.370;2022-12-07T09:55:49;60.70;;;31.08;;
24873;SDS011;12945;42.648;23.370;2022-12-07T09:58:19;67.40;;;31.10;;
24873;SDS011;12945;42.648;23.370;2022-12-07T10:00:45;61.20;;;30.13;;
24873;SDS011;12945;42.648;23.370;2022-12-07T10:03:10;64.82;;;30.23;;
24873;SDS011;12945;42.648;23.370;2022-12-07T10:05:37;49.05;;;27.77;;
24873;SDS011;12945;42.648;23.370;2022-12-07T10:08:04;60.15;;;28.33;;
24873;SDS011;12945;42.648;23.370;2022-12-07T10:10:31;59.17;;;29.65;;
24873;SDS011;12945;42.648;23.370;2022-12-07T10:15:22;59.42;;;28.80;;
24873;SDS011;12945;42.648;23.370;2022-12-07T10:17:48;70.35;;;28.83;;
24873;SDS011;12945;42.648;23.370;2022-12-07T10:23:25;58.33;;;26.67;;
24873;SDS011;12945;42.648;23.370;2022-12-07T10:25:29;59.15;;;28.05;;
24873;SDS011;12945;42.648;23.370;2022-12-07T10:28:18;60.47;;;28.42;;
24873;SDS011;12945;42.648;23.370;2022-12-07T10:30:47;69.45;;;32.05;;
24873;SDS011;12945;42.648;23.370;2022-12-07T10:35:56;59.90;;;26.58;;
24873;SDS011;12945;42.648;23.370;2022-12-07T10:38:22;57.08;;;26.88;;
24873;SDS011;12945;42.648;23.370;2022-12-07T10:40:49;56.78;;;26.55;;
24873;SDS011;12945;42.648;23.370;2022-12-07T10:43:27;52.30;;;25.98;;
24873;SDS011;12945;42.648;23.370;2022-12-07T10:48:35;54.92;;;26.35;;
24873;SDS011;12945;42.648;23.370;2022-12-07T10:51:08;52.15;;;25.80;;
24873;SDS011;12945;42.648;23.370;2022-12-07T10:53:38;53.83;;;25.83;;
24873;SDS011;12945;42.648;23.370;2022-12-07T10:56:30;46.55;;;22.55;;
24873;SDS011;12945;42.648;23.370;2022-12-07T11:01:53;45.33;;;22.25;;
24873;SDS011;12945;42.648;23.370;2022-12-07T11:07:10;49.08;;;24.90;;
24873;SDS011;12945;42.648;23.370;2022-12-07T11:14:54;46.58;;;21.45;;
24873;SDS011;12945;42.648;23.370;2022-12-07T11:20:17;49.67;;;22.27;;
24873;SDS011;12945;42.648;23.370;2022-12-07T11:25:53;52.33;;;24.25;;
24873;SDS011;12945;42.648;23.370;2022-12-07T11:31:22;54.03;;;25.30;;
24873;SDS011;12945;42.648;23.370;2022-12-07T11:33:53;48.80;;;24.73;;
24873;SDS011;12945;42.648;23.370;2022-12-07T11:38:56;53.75;;;26.15;;
24873;SDS011;12945;42.648;23.370;2022-12-07T11:41:23;53.70;;;25.63;;
24873;SDS011;12945;42.648;23.370;2022-12-07T11:46:19;59.38;;;25.73;;
24873;SDS011;12945;42.648;23.370;2022-12-07T11:48:46;50.58;;;25.50;;
24873;SDS011;12945;42.648;23.370;2022-12-07T11:51:12;55.90;;;25.48;;
24873;SDS011;12945;42.648;23.370;2022-12-07T11:53:39;49.55;;;25.63;;
24873;SDS011;12945;42.648;23.370;2022-12-07T11:56:09;49.10;;;25.55;;
24873;SDS011;12945;42.648;23.370;2022-12-07T12:01:11;55.20;;;24.75;;
24873;SDS011;12945;42.648;23.370;2022-12-07T12:03:52;53.78;;;24.85;;
24873;SDS011;12945;42.648;23.370;2022-12-07T12:06:19;50.15;;;25.38;;
24873;SDS011;12945;42.648;23.370;2022-12-07T12:09:00;47.17;;;23.95;;
24873;SDS011;12945;42.648;23.370;2022-12-07T12:11:34;42.95;;;23.45;;
24873;SDS011;12945;42.648;23.370;2022-12-07T12:21:27;49.95;;;23.73;;
24873;SDS011;12945;42.648;23.370;2022-12-07T12:24:04;51.15;;;24.98;;
24873;SDS011;12945;42.648;23.370;2022-12-07T12:26:34;56.63;;;25.73;;
24873;SDS011;12945;42.648;23.370;2022-12-07T12:29:00;55.35;;;25.45;;
24873;SDS011;12945;42.648;23.370;2022-12-07T12:33:53;57.75;;;29.55;;
24873;SDS011;12945;42.648;23.370;2022-12-07T12:36:20;54.67;;;25.50;;
24873;SDS011;12945;42.648;23.370;2022-12-07T12:43:59;51.17;;;26.35;;
24873;SDS011;12945;42.648;23.370;2022-12-07T12:51:39;47.03;;;22.50;;
24873;SDS011;12945;42.648;23.370;2022-12-07T12:54:08;47.55;;;21.00;;
24873;SDS011;12945;42.648;23.370;2022-12-07T12:56:39;53.47;;;21.23;;
24873;SDS011;12945;42.648;23.370;2022-12-07T13:01:50;52.60;;;20.35;;
24873;SDS011;12945;42.648;23.370;2022-12-07T13:04:18;48.53;;;21.58;;
24873;SDS011;12945;42.648;23.370;2022-12-07T13:06:46;40.05;;;19.27;;
24873;SDS011;12945;42.648;23.370;2022-12-07T13:09:19;44.95;;;20.58;;
24873;SDS011;12945;42.648;23.370;2022-12-07T13:11:46;39.15;;;19.98;;
24873;SDS011;12945;42.648;23.370;2022-12-07T13:16:56;39.25;;;18.80;;
24873;SDS011;12945;42.648;23.370;2022-12-07T13:22:27;37.20;;;16.65;;
24873;SDS011;12945;42.648;23.370;2022-12-07T13:24:54;28.05;;;15.55;;
24873;SDS011;12945;42.648;23.370;2022-12-07T13:27:19;29.92;;;15.27;;
24873;SDS011;12945;42.648;23.370;2022-12-07T13:29:44;34.38;;;17.17;;
24873;SDS011;12945;42.648;23.370;2022-12-07T13:32:33;36.95;;;18.00;;
24873;SDS011;12945;42.648;23.370;2022-12-07T13:34:57;36.95;;;16.70;;
24873;SDS011;12945;42.648;23.370;2022-12-07T13:37:27;28.63;;;15.55;;
24873;SDS011;12945;42.648;23.370;2022-12-07T13:39:56;37.03;;;17.52;;
24873;SDS011;12945;42.648;23.370;2022-12-07T13:42:26;34.03;;;16.50;;
24873;SDS011;12945;42.648;23.370;2022-12-07T13:44:51;26.13;;;15.83;;
24873;SDS011;12945;42.648;23.370;2022-12-07T13:47:18;26.45;;;15.30;;
24873;SDS011;12945;42.648;23.370;2022-12-07T13:49:49;30.17;;;15.25;;
24873;SDS011;12945;42.648;23.370;2022-12-07T13:54:48;29.98;;;15.77;;
24873;SDS011;12945;42.648;23.370;2022-12-07T13:57:14;32.38;;;15.95;;
24873;SDS011;12945;42.648;23.370;2022-12-07T13:59:39;32.28;;;16.95;;
24873;SDS011;12945;42.648;23.370;2022-12-07T14:04:49;34.05;;;16.75;;
24873;SDS011;12945;42.648;23.370;2022-12-07T14:07:19;33.55;;;17.17;;
24873;SDS011;12945;42.648;23.370;2022-12-07T14:09:53;37.85;;;17.20;;
24873;SDS011;12945;42.648;23.370;2022-12-07T14:12:18;40.38;;;19.50;;
24873;SDS011;12945;42.648;23.370;2022-12-07T14:14:46;33.35;;;16.50;;
24873;SDS011;12945;42.648;23.370;2022-12-07T14:17:16;40.30;;;19.02;;
24873;SDS011;12945;42.648;23.370;2022-12-07T14:22:56;42.83;;;19.23;;
24873;SDS011;12945;42.648;23.370;2022-12-07T14:27:37;39.00;;;18.58;;
24873;SDS011;12945;42.648;23.370;2022-12-07T14:30:03;41.78;;;18.85;;
24873;SDS011;12945;42.648;23.370;2022-12-07T14:32:29;36.58;;;19.08;;
24873;SDS011;12945;42.648;23.370;2022-12-07T14:37:20;41.78;;;18.88;;
24873;SDS011;12945;42.648;23.370;2022-12-07T14:39:45;39.47;;;17.90;;
24873;SDS011;12945;42.648;23.370;2022-12-07T14:42:11;38.08;;;19.17;;
24873;SDS011;12945;42.648;23.370;2022-12-07T14:44:36;47.50;;;20.02;;
24873;SDS011;12945;42.648;23.370;2022-12-07T14:47:01;45.92;;;19.80;;
24873;SDS011;12945;42.648;23.370;2022-12-07T14:49:27;52.80;;;19.50;;
24873;SDS011;12945;42.648;23.370;2022-12-07T14:51:52;45.10;;;21.13;;
24873;SDS011;12945;42.648;23.370;2022-12-07T14:54:18;55.95;;;21.50;;
24873;SDS011;12945;42.648;23.370;2022-12-07T14:56:44;55.67;;;21.40;;
24873;SDS011;12945;42.648;23.370;2022-12-07T14:59:11;47.85;;;21.00;;
24873;SDS011;12945;42.648;23.370;2022-12-07T15:01:36;54.17;;;21.48;;
24873;SDS011;12945;42.648;23.370;2022-12-07T15:04:02;45.47;;;20.58;;
24873;SDS011;12945;42.648;23.370;2022-12-07T15:06:27;47.03;;;21.50;;
24873;SDS011;12945;42.648;23.370;2022-12-07T15:08:52;39.17;;;20.75;;
24873;SDS011;12945;42.648;23.370;2022-12-07T15:11:18;65.20;;;21.83;;
24873;SDS011;12945;42.648;23.370;2022-12-07T15:13:43;49.55;;;21.20;;
24873;SDS011;12945;42.648;23.370;2022-12-07T15:16:26;50.05;;;20.90;;
24873;SDS011;12945;42.648;23.370;2022-12-07T15:18:52;45.15;;;20.70;;
24873;SDS011;12945;42.648;23.370;2022-12-07T15:21:17;51.95;;;22.20;;
24873;SDS011;12945;42.648;23.370;2022-12-07T15:23:42;53.08;;;22.15;;
24873;SDS011;12945;42.648;23.370;2022-12-07T15:26:10;53.58;;;21.35;;
24873;SDS011;12945;42.648;23.370;2022-12-07T15:28:35;53.15;;;21.90;;
24873;SDS011;12945;42.648;23.370;2022-12-07T15:31:00;43.83;;;23.48;;
24873;SDS011;12945;42.648;23.370;2022-12-07T15:33:25;52.00;;;23.60;;
24873;SDS011;12945;42.648;23.370;2022-12-07T15:35:51;58.50;;;22.92;;
24873;SDS011;12945;42.648;23.370;2022-12-07T15:38:16;54.50;;;24.35;;
24873;SDS011;12945;42.648;23.370;2022-12-07T15:40:41;54.78;;;25.35;;
24873;SDS011;12945;42.648;23.370;2022-12-07T15:43:08;68.63;;;25.10;;
24873;SDS011;12945;42.648;23.370;2022-12-07T15:45:53;60.00;;;24.30;;
24873;SDS011;12945;42.648;23.370;2022-12-07T15:48:19;58.17;;;24.15;;
24873;SDS011;12945;42.648;23.370;2022-12-07T15:50:44;60.97;;;25.88;;
24873;SDS011;12945;42.648;23.370;2022-12-07T15:53:09;58.92;;;26.00;;
24873;SDS011;12945;42.648;23.370;2022-12-07T15:55:34;68.22;;;25.50;;
24873;SDS011;12945;42.648;23.370;2022-12-07T15:58:00;57.08;;;26.15;;
24873;SDS011;12945;42.648;23.370;2022-12-07T16:00:26;62.17;;;28.00;;
24873;SDS011;12945;42.648;23.370;2022-12-07T16:02:51;54.97;;;27.23;;
24873;SDS011;12945;42.648;23.370;2022-12-07T16:05:16;68.93;;;26.02;;
24873;SDS011;12945;42.648;23.370;2022-12-07T16:07:42;62.88;;;26.20;;
24873;SDS011;12945;42.648;23.370;2022-12-07T16:10:07;57.92;;;24.30;;
24873;SDS011;12945;42.648;23.370;2022-12-07T16:12:32;58.58;;;24.83;;
24873;SDS011;12945;42.648;23.370;2022-12-07T16:14:58;58.78;;;25.38;;